createdAt,value
2023-04-13T00:00:02.643Z,7.20
2023-04-13T00:01:02.543Z,7.23
2023-04-13T00:02:03.023Z,7.25
2023-04-13T00:03:03.000Z,7.26
2023-04-13T00:04:02.949Z,7.28
2023-04-13T00:05:02.747Z,7.30
2023-04-13T00:06:02.406Z,7.31
2023-04-13T00:07:03.480Z,7.32
2023-04-13T00:08:03.210Z,7.35
2023-04-13T00:09:03.402Z,7.38
2023-04-13T00:10:03.567Z,7.42
2023-04-13T00:11:03.296Z,7.44
2023-04-13T00:12:03.651Z,7.47
2023-04-13T00:13:03.839Z,7.47
2023-04-13T00:14:03.755Z,7.50
2023-04-13T00:15:03.200Z,7.52
2023-04-13T00:16:03.400Z,7.53
2023-04-13T00:17:03.835Z,7.53
2023-04-13T00:18:03.700Z,7.55
2023-04-13T00:19:03.668Z,7.58
2023-04-13T00:20:03.349Z,7.63
2023-04-13T00:21:03.473Z,7.69
2023-04-13T00:22:02.358Z,7.70
2023-04-13T00:23:02.745Z,7.74
2023-04-13T00:24:02.708Z,7.74
2023-04-13T00:25:02.390Z,7.78
2023-04-13T00:26:02.672Z,7.80
2023-04-13T00:27:02.885Z,7.80
2023-04-13T00:28:03.039Z,7.85
2023-04-13T00:29:03.030Z,7.88
2023-04-13T00:30:02.741Z,7.91
2023-04-13T00:31:03.035Z,7.94
2023-04-13T00:32:03.040Z,7.97
2023-04-13T00:33:02.804Z,8.00
2023-04-13T00:34:03.062Z,8.04
2023-04-13T00:35:02.766Z,8.04
2023-04-13T00:36:02.871Z,8.05
2023-04-13T00:37:03.091Z,8.04
2023-04-13T00:38:02.989Z,8.06
2023-04-13T00:39:03.113Z,8.08
2023-04-13T00:40:03.185Z,8.10
2023-04-13T00:41:02.719Z,8.09
2023-04-13T00:42:03.648Z,8.11
2023-04-13T00:43:03.326Z,8.13
2023-04-13T00:44:03.355Z,8.14
2023-04-13T00:45:03.662Z,8.15
2023-04-13T00:46:03.474Z,8.16
2023-04-13T00:47:02.975Z,8.19
2023-04-13T00:48:02.438Z,8.19
2023-04-13T00:49:02.914Z,8.21
2023-04-13T00:50:02.932Z,8.20
2023-04-13T00:51:02.361Z,8.22
2023-04-13T00:52:03.501Z,8.22
2023-04-13T00:53:03.083Z,8.24
2023-04-13T00:54:03.008Z,8.24
2023-04-13T00:55:03.316Z,8.24
2023-04-13T00:56:02.871Z,8.26
2023-04-13T00:57:02.397Z,8.27
2023-04-13T00:58:02.704Z,8.27
2023-04-13T00:59:02.566Z,8.28
2023-04-13T01:00:02.855Z,8.29
2023-04-13T01:01:02.656Z,8.30
2023-04-13T01:02:02.207Z,8.29
2023-04-13T01:03:02.659Z,8.29
2023-04-13T01:04:02.363Z,8.31
2023-04-13T01:05:02.574Z,8.30
2023-04-13T01:06:01.977Z,8.29
2023-04-13T01:07:02.372Z,8.29
2023-04-13T01:08:02.784Z,8.29
2023-04-13T01:09:02.357Z,8.30
2023-04-13T01:10:02.735Z,8.31
2023-04-13T01:11:02.493Z,8.33
2023-04-13T01:12:02.415Z,8.34
2023-04-13T01:13:01.882Z,8.33
2023-04-13T01:14:02.386Z,8.31
2023-04-13T01:15:01.791Z,8.33
2023-04-13T01:16:02.301Z,8.33
2023-04-13T01:18:02.357Z,8.36
2023-04-13T01:20:02.320Z,8.33
2023-04-13T01:21:02.119Z,8.33
2023-04-13T01:22:02.966Z,8.36
2023-04-13T01:23:02.463Z,8.38
2023-04-13T01:24:02.852Z,8.41
2023-04-13T01:25:02.825Z,8.41
2023-04-13T01:26:02.550Z,8.41
2023-04-13T01:27:02.038Z,8.40
2023-04-13T01:28:01.907Z,8.41
2023-04-13T01:29:02.343Z,8.43
2023-04-13T01:30:02.314Z,8.42
2023-04-13T01:31:02.203Z,8.40
2023-04-13T01:32:02.669Z,8.41
2023-04-13T01:33:02.923Z,8.44
2023-04-13T01:34:02.785Z,8.47
2023-04-13T01:35:03.105Z,8.48
2023-04-13T01:36:02.501Z,8.45
2023-04-13T01:37:02.164Z,8.45
2023-04-13T01:38:01.842Z,8.45
2023-04-13T01:39:02.177Z,8.43
2023-04-13T01:40:02.305Z,8.43
2023-04-13T01:41:01.989Z,8.42
2023-04-13T01:42:02.566Z,8.42
2023-04-13T01:43:02.336Z,8.41
2023-04-13T01:44:02.712Z,8.42
2023-04-13T01:45:02.381Z,8.43
2023-04-13T01:46:02.772Z,8.41
2023-04-13T01:47:01.944Z,8.38
2023-04-13T01:48:02.302Z,8.35
2023-04-13T01:49:01.738Z,8.34
2023-04-13T01:50:01.927Z,8.34
2023-04-13T01:51:02.214Z,8.34
2023-04-13T01:52:02.556Z,8.33
2023-04-13T01:53:02.763Z,8.33
2023-04-13T01:54:02.478Z,8.32
2023-04-13T01:55:02.611Z,8.33
2023-04-13T01:56:02.319Z,8.35
2023-04-13T01:57:02.577Z,8.35
2023-04-13T01:58:02.425Z,8.37
2023-04-13T01:59:02.728Z,8.38
2023-04-13T02:00:02.544Z,8.39
2023-04-13T02:01:03.100Z,8.38
2023-04-13T02:02:03.212Z,8.40
2023-04-13T02:03:03.753Z,8.39
2023-04-13T02:04:04.291Z,8.38
2023-04-13T02:05:03.522Z,8.39
2023-04-13T02:06:03.589Z,8.40
2023-04-13T02:07:02.758Z,8.41
2023-04-13T02:08:02.990Z,8.42
2023-04-13T02:09:02.985Z,8.42
2023-04-13T02:10:02.542Z,8.41
2023-04-13T02:11:02.511Z,8.41
2023-04-13T02:12:02.833Z,8.44
2023-04-13T02:13:03.191Z,8.43
2023-04-13T02:14:02.559Z,8.43
2023-04-13T02:15:03.026Z,8.43
2023-04-13T02:16:02.713Z,8.45
2023-04-13T02:17:03.387Z,8.45
2023-04-13T02:18:03.196Z,8.47
2023-04-13T02:19:03.040Z,8.48
2023-04-13T02:20:03.505Z,8.47
2023-04-13T02:21:03.420Z,8.47
2023-04-13T02:22:03.176Z,8.47
2023-04-13T02:23:02.582Z,8.49
2023-04-13T02:24:03.170Z,8.50
2023-04-13T02:25:02.689Z,8.50
2023-04-13T02:26:02.665Z,8.48
2023-04-13T02:27:03.237Z,8.48
2023-04-13T02:28:03.090Z,8.50
2023-04-13T02:29:03.065Z,8.50
2023-04-13T02:30:02.828Z,8.51
2023-04-13T02:31:03.200Z,8.48
2023-04-13T02:32:03.491Z,8.48
2023-04-13T02:33:03.494Z,8.50
2023-04-13T02:34:03.504Z,8.51
2023-04-13T02:35:03.350Z,8.50
2023-04-13T02:36:03.612Z,8.50
2023-04-13T02:37:02.899Z,8.51
2023-04-13T02:38:02.543Z,8.51
2023-04-13T02:39:02.965Z,8.52
2023-04-13T02:40:02.537Z,8.54
2023-04-13T02:41:03.302Z,8.54
2023-04-13T02:42:03.077Z,8.53
2023-04-13T02:43:03.396Z,8.53
2023-04-13T02:44:03.141Z,8.53
2023-04-13T02:45:03.527Z,8.54
2023-04-13T02:46:03.084Z,8.54
2023-04-13T02:47:03.702Z,8.54
2023-04-13T02:48:03.393Z,8.55
2023-04-13T02:49:03.183Z,8.56
2023-04-13T02:50:03.240Z,8.55
2023-04-13T02:51:03.607Z,8.56
2023-04-13T02:52:03.166Z,8.56
2023-04-13T02:53:02.854Z,8.57
2023-04-13T02:54:03.453Z,8.54
2023-04-13T02:55:03.125Z,8.54
2023-04-13T02:56:02.691Z,8.55
2023-04-13T02:57:03.256Z,8.57
2023-04-13T02:58:02.974Z,8.56
2023-04-13T02:59:02.700Z,8.58
2023-04-13T03:00:02.947Z,8.56
2023-04-13T03:01:02.804Z,8.58
2023-04-13T03:02:02.364Z,8.60
2023-04-13T03:03:01.984Z,8.61
2023-04-13T03:04:02.395Z,8.62
2023-04-13T03:05:01.915Z,8.64
2023-04-13T03:06:02.214Z,8.64
2023-04-13T03:07:02.612Z,8.62
2023-04-13T03:08:02.375Z,8.62
2023-04-13T03:09:02.637Z,8.62
2023-04-13T03:10:02.225Z,8.61
2023-04-13T03:11:02.668Z,8.64
2023-04-13T03:12:02.300Z,8.63
2023-04-13T03:13:02.661Z,8.65
2023-04-13T03:14:02.522Z,8.66
2023-04-13T03:15:02.585Z,8.66
2023-04-13T03:16:02.592Z,8.65
2023-04-13T03:17:03.001Z,8.65
2023-04-13T03:18:03.076Z,8.63
2023-04-13T03:19:02.538Z,8.63
2023-04-13T03:20:02.697Z,8.65
2023-04-13T03:21:02.766Z,8.66
2023-04-13T03:22:02.048Z,8.66
2023-04-13T03:23:02.077Z,8.65
2023-04-13T03:24:02.551Z,8.64
2023-04-13T03:25:02.145Z,8.64
2023-04-13T03:26:02.455Z,8.64
2023-04-13T03:27:02.558Z,8.67
2023-04-13T03:28:02.358Z,8.68
2023-04-13T03:29:02.259Z,8.68
2023-04-13T03:30:01.977Z,8.68
2023-04-13T03:31:02.170Z,8.68
2023-04-13T03:32:03.277Z,8.70
2023-04-13T03:33:02.988Z,8.71
2023-04-13T03:34:02.674Z,8.72
2023-04-13T03:35:02.977Z,8.72
2023-04-13T03:36:02.619Z,8.75
2023-04-13T03:37:02.704Z,8.77
2023-04-13T03:38:02.305Z,8.75
2023-04-13T03:39:02.110Z,8.76
2023-04-13T03:40:02.256Z,8.77
2023-04-13T03:41:02.417Z,8.77
2023-04-13T03:42:02.170Z,8.78
2023-04-13T03:43:02.161Z,8.80
2023-04-13T03:44:02.812Z,8.81
2023-04-13T03:45:02.410Z,8.81
2023-04-13T03:46:02.895Z,8.81
2023-04-13T03:47:02.851Z,8.82
2023-04-13T03:48:02.990Z,8.83
2023-04-13T03:49:02.417Z,8.85
2023-04-13T03:50:02.910Z,8.84
2023-04-13T03:51:03.000Z,8.86
2023-04-13T03:52:01.821Z,8.86
2023-04-13T03:53:02.332Z,8.86
2023-04-13T03:54:01.937Z,8.87
2023-04-13T03:55:02.490Z,8.85
2023-04-13T03:56:01.996Z,8.85
2023-04-13T03:57:02.459Z,8.87
2023-04-13T03:58:02.687Z,8.88
2023-04-13T03:59:02.786Z,8.90
2023-04-13T04:00:02.447Z,8.93
2023-04-13T04:01:02.747Z,8.92
2023-04-13T04:02:03.242Z,8.91
2023-04-13T04:03:03.095Z,8.90
2023-04-13T04:04:03.208Z,8.89
2023-04-13T04:05:02.826Z,8.89
2023-04-13T04:06:02.636Z,8.91
2023-04-13T04:07:02.470Z,8.93
2023-04-13T04:08:02.590Z,8.94
2023-04-13T04:09:02.651Z,8.94
2023-04-13T04:10:02.436Z,8.93
2023-04-13T04:11:02.460Z,8.95
2023-04-13T04:12:02.838Z,8.93
2023-04-13T04:13:03.079Z,8.94
2023-04-13T04:14:03.144Z,8.98
2023-04-13T04:15:03.125Z,9.02
2023-04-13T04:16:02.971Z,9.03
2023-04-13T04:17:02.390Z,8.99
2023-04-13T04:18:02.619Z,8.98
2023-04-13T04:19:02.461Z,9.03
2023-04-13T04:20:02.232Z,9.06
2023-04-13T04:21:02.804Z,9.06
2023-04-13T04:22:03.001Z,9.06
2023-04-13T04:23:03.312Z,9.04
2023-04-13T04:24:02.965Z,9.01
2023-04-13T04:25:02.787Z,9.01
2023-04-13T04:26:03.129Z,8.98
2023-04-13T04:27:02.492Z,8.99
2023-04-13T04:28:02.980Z,8.98
2023-04-13T04:29:02.977Z,8.96
2023-04-13T04:30:02.715Z,8.96
2023-04-13T04:31:02.548Z,8.97
2023-04-13T04:32:03.415Z,8.95
2023-04-13T04:33:03.119Z,8.95
2023-04-13T04:34:02.906Z,8.94
2023-04-13T04:35:03.116Z,8.94
2023-04-13T04:36:03.153Z,8.93
2023-04-13T04:37:03.735Z,8.94
2023-04-13T04:38:02.659Z,8.96
2023-04-13T04:39:03.027Z,8.95
2023-04-13T04:40:02.887Z,8.95
2023-04-13T04:41:02.441Z,8.95
2023-04-13T04:42:02.825Z,8.96
2023-04-13T04:43:02.730Z,8.95
2023-04-13T04:44:02.619Z,8.98
2023-04-13T04:45:02.978Z,8.98
2023-04-13T04:46:02.690Z,8.99
2023-04-13T04:47:03.032Z,8.99
2023-04-13T04:48:02.700Z,9.01
2023-04-13T04:49:03.232Z,9.02
2023-04-13T04:50:02.894Z,9.04
2023-04-13T04:51:03.294Z,9.05
2023-04-13T04:52:03.157Z,9.04
2023-04-13T04:53:02.830Z,9.05
2023-04-13T04:54:03.366Z,9.06
2023-04-13T04:55:03.481Z,9.02
2023-04-13T04:56:03.080Z,9.02
2023-04-13T04:57:02.655Z,9.00
2023-04-13T04:58:02.655Z,9.03
2023-04-13T04:59:02.471Z,9.04
2023-04-13T05:00:02.676Z,9.05
2023-04-13T05:01:02.634Z,9.06
2023-04-13T05:02:03.056Z,9.06
2023-04-13T05:03:02.914Z,9.06
2023-04-13T05:04:02.817Z,9.05
2023-04-13T05:05:03.376Z,9.05
2023-04-13T05:06:03.451Z,9.06
2023-04-13T05:07:03.343Z,9.05
2023-04-13T05:08:03.421Z,9.05
2023-04-13T05:09:03.516Z,9.04
2023-04-13T05:10:03.347Z,9.04
2023-04-13T05:11:03.149Z,9.07
2023-04-13T05:12:02.661Z,9.09
2023-04-13T05:13:02.429Z,9.08
2023-04-13T05:14:02.474Z,9.08
2023-04-13T05:15:02.398Z,9.09
2023-04-13T05:16:02.368Z,9.09
2023-04-13T05:17:02.821Z,9.09
2023-04-13T05:18:02.733Z,9.08
2023-04-13T05:19:02.699Z,9.06
2023-04-13T05:20:03.134Z,9.05
2023-04-13T05:21:02.798Z,9.04
2023-04-13T05:22:03.332Z,9.08
2023-04-13T05:23:03.020Z,9.09
2023-04-13T05:24:03.309Z,9.11
2023-04-13T05:25:03.338Z,9.11
2023-04-13T05:26:03.280Z,9.10
2023-04-13T05:27:02.853Z,9.12
2023-04-13T05:28:02.785Z,9.12
2023-04-13T05:29:02.731Z,9.14
2023-04-13T05:30:02.673Z,9.12
2023-04-13T05:31:02.470Z,9.16
2023-04-13T05:32:03.058Z,9.18
2023-04-13T05:33:02.558Z,9.21
2023-04-13T05:34:02.517Z,9.20
2023-04-13T05:35:02.536Z,9.18
2023-04-13T05:36:02.733Z,9.17
2023-04-13T05:37:02.777Z,9.16
2023-04-13T05:38:03.018Z,9.16
2023-04-13T05:39:02.918Z,9.16
2023-04-13T05:40:02.928Z,9.15
2023-04-13T05:41:02.801Z,9.16
2023-04-13T05:42:02.653Z,9.16
2023-04-13T05:43:02.255Z,9.18
2023-04-13T05:44:02.290Z,9.20
2023-04-13T05:45:02.454Z,9.26
2023-04-13T05:46:02.462Z,9.28
2023-04-13T05:47:02.997Z,9.28
2023-04-13T05:48:03.221Z,9.28
2023-04-13T05:49:02.581Z,9.30
2023-04-13T05:50:02.740Z,9.28
2023-04-13T05:51:02.667Z,9.26
2023-04-13T05:52:02.597Z,9.25
2023-04-13T05:53:02.325Z,9.24
2023-04-13T05:54:02.639Z,9.26
2023-04-13T05:55:02.510Z,9.27
2023-04-13T05:56:02.393Z,9.28
2023-04-13T05:57:03.176Z,9.27
2023-04-13T05:58:02.869Z,9.27
2023-04-13T05:59:02.909Z,9.27
2023-04-13T06:00:02.939Z,9.29
2023-04-13T06:01:02.875Z,9.31
2023-04-13T06:02:01.906Z,9.32
2023-04-13T06:03:02.224Z,9.34
2023-04-13T06:04:02.104Z,9.37
2023-04-13T06:05:02.240Z,9.36
2023-04-13T06:06:02.072Z,9.35
2023-04-13T06:07:01.822Z,9.36
2023-04-13T06:08:02.446Z,9.37
2023-04-13T06:09:02.545Z,9.34
2023-04-13T06:10:02.223Z,9.33
2023-04-13T06:11:01.948Z,9.32
2023-04-13T06:12:02.486Z,9.33
2023-04-13T06:13:02.463Z,9.33
2023-04-13T06:14:03.077Z,9.33
2023-04-13T06:15:03.071Z,9.38
2023-04-13T06:16:02.601Z,9.37
2023-04-13T06:17:02.311Z,9.39
2023-04-13T06:18:02.380Z,9.37
2023-04-13T06:19:02.945Z,9.38
2023-04-13T06:20:02.722Z,9.41
2023-04-13T06:21:02.272Z,9.44
2023-04-13T06:22:02.341Z,9.44
2023-04-13T06:23:02.708Z,9.45
2023-04-13T06:24:02.614Z,9.48
2023-04-13T06:25:02.464Z,9.49
2023-04-13T06:26:04.310Z,9.51
2023-04-13T06:27:01.913Z,9.50
2023-04-13T06:28:02.342Z,9.54
2023-04-13T06:29:02.130Z,9.57
2023-04-13T06:30:02.421Z,9.55
2023-04-13T06:31:02.165Z,9.57
2023-04-13T06:32:02.360Z,9.57
2023-04-13T06:33:02.361Z,9.57
2023-04-13T06:34:02.547Z,9.52
2023-04-13T06:35:02.397Z,9.50
2023-04-13T06:36:02.200Z,9.49
2023-04-13T06:37:02.636Z,9.49
2023-04-13T06:38:03.163Z,9.48
2023-04-13T06:39:02.694Z,9.49
2023-04-13T06:40:02.837Z,9.51
2023-04-13T06:41:03.133Z,9.51
2023-04-13T06:42:02.624Z,9.46
2023-04-13T06:43:02.798Z,9.47
2023-04-13T06:44:02.604Z,9.45
2023-04-13T06:45:02.859Z,9.45
2023-04-13T06:46:03.035Z,9.44
2023-04-13T06:47:02.013Z,9.43
2023-04-13T06:48:01.873Z,9.40
2023-04-13T06:49:01.996Z,9.41
2023-04-13T06:50:01.918Z,9.40
2023-04-13T06:51:01.950Z,9.40
2023-04-13T06:52:02.481Z,9.36
2023-04-13T06:53:02.362Z,9.34
2023-04-13T06:54:02.548Z,9.35
2023-04-13T06:55:02.380Z,9.35
2023-04-13T06:56:02.282Z,9.37
2023-04-13T06:57:02.109Z,9.38
2023-04-13T06:58:01.873Z,9.36
2023-04-13T06:59:02.858Z,9.35
2023-04-13T07:00:01.880Z,9.35
2023-04-13T07:01:02.128Z,9.27
2023-04-13T07:02:02.471Z,9.18
2023-04-13T07:03:02.325Z,9.17
2023-04-13T07:04:02.329Z,9.22
2023-04-13T07:05:01.979Z,9.24
2023-04-13T07:06:01.911Z,9.26
2023-04-13T07:07:02.416Z,9.32
2023-04-13T07:08:02.247Z,9.36
2023-04-13T07:09:02.782Z,9.39
2023-04-13T07:10:02.782Z,9.42
2023-04-13T07:11:02.353Z,9.47
2023-04-13T07:12:01.888Z,9.51
2023-04-13T07:13:01.639Z,9.56
2023-04-13T07:14:02.112Z,9.59
2023-04-13T07:15:01.865Z,9.56
2023-04-13T07:16:01.734Z,9.55
2023-04-13T07:17:02.862Z,9.55
2023-04-13T07:18:02.576Z,9.58
2023-04-13T07:19:02.523Z,9.61
2023-04-13T07:20:02.302Z,9.72
2023-04-13T07:21:02.939Z,9.78
2023-04-13T07:22:02.312Z,9.78
2023-04-13T07:23:02.465Z,9.83
2023-04-13T07:24:02.268Z,9.89
2023-04-13T07:25:02.012Z,9.96
2023-04-13T07:26:01.917Z,9.98
2023-04-13T07:27:02.276Z,9.97
2023-04-13T07:28:02.287Z,10.00
2023-04-13T07:29:02.152Z,10.02
2023-04-13T07:30:02.151Z,10.00
2023-04-13T07:31:02.064Z,9.97
2023-04-13T07:32:02.438Z,9.98
2023-04-13T07:33:02.534Z,9.97
2023-04-13T07:34:02.443Z,9.99
2023-04-13T07:35:02.716Z,10.05
2023-04-13T07:36:02.055Z,10.13
2023-04-13T07:37:01.954Z,10.16
2023-04-13T07:38:01.803Z,10.14
2023-04-13T07:39:01.812Z,10.17
2023-04-13T07:40:01.975Z,10.20
2023-04-13T07:41:01.903Z,10.18
2023-04-13T07:42:02.429Z,10.24
2023-04-13T07:43:02.380Z,10.24
2023-04-13T07:44:02.241Z,10.22
2023-04-13T07:45:02.193Z,10.15
2023-04-13T07:46:02.040Z,10.08
2023-04-13T07:47:02.724Z,10.03
2023-04-13T07:48:02.561Z,10.00
2023-04-13T07:49:02.829Z,9.99
2023-04-13T07:50:02.501Z,9.99
2023-04-13T07:51:02.438Z,9.94
2023-04-13T07:52:02.105Z,9.91
2023-04-13T07:53:01.951Z,9.92
2023-04-13T07:54:01.730Z,9.98
2023-04-13T07:55:01.639Z,10.01
2023-04-13T07:56:02.232Z,10.04
2023-04-13T07:57:02.177Z,10.09
2023-04-13T07:58:01.955Z,10.12
2023-04-13T07:59:02.050Z,10.13
2023-04-13T08:00:01.730Z,10.13
2023-04-13T08:01:01.836Z,10.15
2023-04-13T08:02:02.378Z,10.25
2023-04-13T08:03:02.458Z,10.34
2023-04-13T08:04:02.333Z,10.39
2023-04-13T08:05:02.360Z,10.43
2023-04-13T08:06:02.184Z,10.44
2023-04-13T08:07:02.795Z,10.42
2023-04-13T08:08:02.704Z,10.40
2023-04-13T08:09:02.657Z,10.45
2023-04-13T08:10:02.615Z,10.45
2023-04-13T08:11:02.524Z,10.39
2023-04-13T08:12:02.218Z,10.37
2023-04-13T08:13:01.932Z,10.37
2023-04-13T08:14:01.799Z,10.39
2023-04-13T08:15:01.731Z,10.43
2023-04-13T08:16:02.378Z,10.44
2023-04-13T08:17:03.964Z,10.46
2023-04-13T08:18:02.733Z,10.43
2023-04-13T08:19:02.781Z,10.44
2023-04-13T08:20:02.716Z,10.50
2023-04-13T08:21:02.645Z,10.55
2023-04-13T08:22:02.380Z,10.56
2023-04-13T08:23:01.933Z,10.56
2023-04-13T08:24:01.929Z,10.61
2023-04-13T08:25:02.305Z,10.62
2023-04-13T08:26:02.168Z,10.62
2023-04-13T08:27:02.842Z,10.63
2023-04-13T08:28:02.901Z,10.65
2023-04-13T08:29:02.519Z,10.72
2023-04-13T08:30:02.638Z,10.81
2023-04-13T08:31:02.653Z,10.81
2023-04-13T08:32:02.397Z,10.75
2023-04-13T08:33:01.910Z,10.75
2023-04-13T08:34:01.750Z,10.78
2023-04-13T08:35:02.294Z,10.79
2023-04-13T08:36:02.036Z,10.80
2023-04-13T08:37:02.914Z,10.77
2023-04-13T08:38:02.342Z,10.79
2023-04-13T08:39:02.675Z,10.81
2023-04-13T08:40:02.612Z,10.81
2023-04-13T08:41:02.768Z,10.78
2023-04-13T08:42:01.720Z,10.75
2023-04-13T08:43:02.277Z,10.76
2023-04-13T08:44:01.906Z,10.79
2023-04-13T08:45:01.786Z,10.86
2023-04-13T08:46:01.772Z,10.94
2023-04-13T08:47:02.151Z,10.97
2023-04-13T08:48:02.155Z,10.98
2023-04-13T08:49:02.424Z,10.93
2023-04-13T08:50:01.851Z,10.91
2023-04-13T08:51:01.945Z,10.94
2023-04-13T08:52:02.223Z,10.98
2023-04-13T08:53:02.266Z,11.01
2023-04-13T08:54:02.196Z,10.97
2023-04-13T08:55:02.170Z,10.99
2023-04-13T08:56:02.098Z,10.99
2023-04-13T08:57:02.086Z,11.02
2023-04-13T08:58:02.274Z,11.02
2023-04-13T08:59:02.649Z,11.02
2023-04-13T09:00:02.528Z,11.03
2023-04-13T09:01:02.464Z,11.01
2023-04-13T09:02:02.565Z,10.95
2023-04-13T09:03:04.575Z,10.91
2023-04-13T09:04:02.995Z,10.92
2023-04-13T09:05:03.250Z,10.94
2023-04-13T09:06:02.878Z,10.91
2023-04-13T09:07:03.031Z,10.94
2023-04-13T09:08:03.115Z,10.97
2023-04-13T09:09:03.012Z,11.04
2023-04-13T09:10:03.082Z,11.09
2023-04-13T09:11:03.018Z,11.10
2023-04-13T09:12:02.973Z,11.10
2023-04-13T09:13:03.024Z,11.14
2023-04-13T09:14:03.212Z,11.20
2023-04-13T09:15:02.906Z,11.26
2023-04-13T09:16:03.085Z,11.32
2023-04-13T09:17:05.610Z,11.34
2023-04-13T09:18:03.504Z,11.34
2023-04-13T09:19:03.237Z,11.40
2023-04-13T09:20:03.085Z,11.45
2023-04-13T09:21:03.121Z,11.52
2023-04-13T09:22:03.080Z,11.63
2023-04-13T09:23:04.943Z,11.71
2023-04-13T09:24:03.023Z,11.79
2023-04-13T09:25:02.762Z,11.82
2023-04-13T09:26:02.766Z,11.86
2023-04-13T09:27:02.818Z,11.90
2023-04-13T09:28:02.834Z,11.99
2023-04-13T09:29:02.737Z,12.02
2023-04-13T09:30:02.679Z,12.07
2023-04-13T09:31:02.794Z,12.08
2023-04-13T09:32:03.313Z,12.10
2023-04-13T09:33:03.361Z,12.20
2023-04-13T09:34:03.552Z,12.33
2023-04-13T09:35:03.740Z,12.41
2023-04-13T09:36:03.432Z,12.51
2023-04-13T09:37:02.622Z,12.64
2023-04-13T09:38:02.381Z,12.78
2023-04-13T09:39:03.099Z,12.86
2023-04-13T09:40:02.774Z,12.97
2023-04-13T09:41:02.270Z,13.08
2023-04-13T09:42:02.924Z,13.15
2023-04-13T09:43:03.248Z,13.16
2023-04-13T09:44:03.349Z,13.15
2023-04-13T09:45:03.072Z,13.06
2023-04-13T09:46:02.978Z,13.05
2023-04-13T09:47:03.148Z,13.03
2023-04-13T09:48:03.208Z,13.03
2023-04-13T09:49:03.181Z,13.04
2023-04-13T09:50:03.162Z,13.04
2023-04-13T09:51:02.857Z,12.97
2023-04-13T09:52:03.326Z,12.69
2023-04-13T09:53:03.441Z,12.53
2023-04-13T09:54:03.757Z,12.53
2023-04-13T09:55:03.748Z,12.53
2023-04-13T09:56:03.507Z,12.55
2023-04-13T09:57:02.910Z,12.65
2023-04-13T09:58:02.791Z,12.80
2023-04-13T09:59:03.208Z,12.92
2023-04-13T10:00:03.068Z,13.01
2023-04-13T10:01:03.288Z,12.90
2023-04-13T10:02:02.977Z,12.94
2023-04-13T10:03:02.957Z,12.87
2023-04-13T10:04:03.036Z,12.57
2023-04-13T10:05:03.214Z,12.47
2023-04-13T10:06:03.123Z,12.46
2023-04-13T10:07:02.188Z,12.43
2023-04-13T10:08:01.864Z,12.42
2023-04-13T10:09:02.030Z,12.38
2023-04-13T10:10:02.335Z,12.35
2023-04-13T10:11:02.313Z,12.38
2023-04-13T10:12:02.279Z,12.53
2023-04-13T10:13:02.364Z,12.53
2023-04-13T10:14:02.620Z,12.44
2023-04-13T10:15:02.186Z,12.41
2023-04-13T10:16:04.112Z,12.41
2023-04-13T10:17:02.876Z,12.53
2023-04-13T10:18:02.865Z,12.68
2023-04-13T10:19:02.963Z,12.75
2023-04-13T10:20:03.159Z,12.85
2023-04-13T10:21:02.922Z,12.98
2023-04-13T10:22:02.542Z,13.08
2023-04-13T10:23:02.198Z,13.22
2023-04-13T10:24:02.730Z,13.22
2023-04-13T10:25:02.386Z,13.27
2023-04-13T10:26:02.266Z,13.26
2023-04-13T10:27:02.912Z,13.40
2023-04-13T10:28:03.202Z,13.39
2023-04-13T10:29:03.234Z,13.40
2023-04-13T10:30:02.992Z,13.44
2023-04-13T10:31:03.074Z,13.49
2023-04-13T10:32:03.073Z,13.50
2023-04-13T10:33:02.398Z,13.59
2023-04-13T10:34:02.430Z,13.70
2023-04-13T10:35:02.669Z,13.61
2023-04-13T10:36:02.334Z,13.46
2023-04-13T10:37:02.318Z,13.35
2023-04-13T10:38:02.471Z,13.42
2023-04-13T10:39:02.240Z,13.30
2023-04-13T10:40:01.976Z,13.19
2023-04-13T10:41:02.188Z,13.25
2023-04-13T10:42:02.399Z,13.34
2023-04-13T10:43:02.442Z,13.47
2023-04-13T10:44:02.318Z,13.57
2023-04-13T10:45:02.256Z,13.65
2023-04-13T10:46:02.084Z,13.73
2023-04-13T10:47:02.562Z,13.80
2023-04-13T10:48:02.205Z,13.82
2023-04-13T10:49:02.432Z,13.72
2023-04-13T10:50:02.541Z,13.61
2023-04-13T10:51:02.706Z,13.55
2023-04-13T10:52:02.989Z,13.56
2023-04-13T10:53:03.006Z,13.52
2023-04-13T10:54:03.038Z,13.52
2023-04-13T10:55:03.131Z,13.61
2023-04-13T10:56:02.938Z,13.72
2023-04-13T10:57:03.108Z,13.79
2023-04-13T10:58:02.768Z,13.84
2023-04-13T10:59:02.651Z,13.99
2023-04-13T11:00:03.156Z,14.22
2023-04-13T11:01:03.258Z,14.45
2023-04-13T11:02:02.667Z,14.54
2023-04-13T11:03:02.387Z,14.61
2023-04-13T11:04:05.308Z,14.80
2023-04-13T11:05:02.749Z,14.99
2023-04-13T11:06:02.447Z,15.09
2023-04-13T11:07:02.853Z,15.00
2023-04-13T11:08:02.746Z,14.94
2023-04-13T11:09:02.547Z,14.91
2023-04-13T11:10:03.762Z,15.00
2023-04-13T11:11:02.899Z,15.02
2023-04-13T11:12:03.262Z,15.12
2023-04-13T11:13:03.170Z,15.23
2023-04-13T11:14:03.378Z,15.18
2023-04-13T11:15:03.237Z,15.12
2023-04-13T11:16:03.182Z,15.18
2023-04-13T11:17:03.442Z,15.24
2023-04-13T11:18:03.347Z,15.18
2023-04-13T11:19:03.505Z,15.02
2023-04-13T11:20:03.106Z,14.85
2023-04-13T11:21:04.688Z,14.81
2023-04-13T11:22:02.911Z,14.78
2023-04-13T11:23:02.444Z,14.75
2023-04-13T11:24:02.442Z,14.77
2023-04-13T11:25:02.599Z,14.71
2023-04-13T11:26:02.381Z,14.69
2023-04-13T11:27:02.930Z,14.74
2023-04-13T11:28:03.006Z,14.85
2023-04-13T11:29:02.773Z,15.01
2023-04-13T11:30:02.621Z,15.11
2023-04-13T11:31:02.581Z,15.00
2023-04-13T11:32:03.234Z,14.90
2023-04-13T11:33:03.311Z,14.91
2023-04-13T11:34:03.151Z,14.80
2023-04-13T11:35:02.791Z,14.78
2023-04-13T11:36:03.227Z,14.68
2023-04-13T11:37:03.320Z,14.66
2023-04-13T11:38:02.908Z,14.74
2023-04-13T11:39:03.062Z,14.83
2023-04-13T11:40:03.186Z,14.80
2023-04-13T11:42:02.954Z,14.82
2023-04-13T11:43:02.600Z,14.87
2023-04-13T11:44:02.821Z,14.84
2023-04-13T11:45:02.828Z,14.93
2023-04-13T11:46:02.922Z,15.09
2023-04-13T11:47:03.456Z,15.29
2023-04-13T11:48:03.213Z,15.41
2023-04-13T11:49:03.340Z,15.50
2023-04-13T11:50:03.313Z,15.65
2023-04-13T11:51:03.600Z,15.76
2023-04-13T11:52:02.494Z,15.76
2023-04-13T11:53:02.797Z,15.61
2023-04-13T11:54:02.958Z,15.48
2023-04-13T11:55:14.768Z,15.38
2023-04-13T11:56:02.924Z,15.25
2023-04-13T11:57:02.938Z,15.03
2023-04-13T11:58:02.434Z,14.66
2023-04-13T11:59:02.485Z,14.38
2023-04-13T12:00:02.114Z,14.14
2023-04-13T12:01:03.450Z,13.91
2023-04-13T12:02:04.696Z,13.79
2023-04-13T12:03:03.392Z,13.77
2023-04-13T12:04:12.712Z,13.80
2023-04-13T12:05:02.847Z,13.83
2023-04-13T12:06:02.745Z,13.88
2023-04-13T12:07:03.220Z,13.96
2023-04-13T12:08:02.873Z,14.05
2023-04-13T12:09:09.329Z,14.08
2023-04-13T12:10:05.724Z,14.17
2023-04-13T12:12:39.263Z,14.27
2023-04-13T12:14:09.890Z,14.48
2023-04-13T12:16:08.685Z,14.61
2023-04-13T12:17:12.383Z,14.63
2023-04-13T12:18:14.288Z,14.51
2023-04-13T12:19:02.979Z,14.34
2023-04-13T12:20:04.119Z,14.27
2023-04-13T12:21:02.635Z,14.26
2023-04-13T12:22:03.543Z,14.32
2023-04-13T12:23:12.501Z,14.45
2023-04-13T12:24:02.674Z,14.52
2023-04-13T12:25:02.743Z,14.60
2023-04-13T12:26:18.798Z,14.68
2023-04-13T12:27:17.951Z,14.74
2023-04-13T12:28:02.786Z,14.78
2023-04-13T12:29:02.799Z,14.74
2023-04-13T12:30:03.048Z,14.76
2023-04-13T12:31:03.301Z,14.77
2023-04-13T12:32:02.956Z,14.80
2023-04-13T12:33:02.981Z,14.74
2023-04-13T12:34:02.372Z,14.73
2023-04-13T12:35:02.439Z,14.73
2023-04-13T12:36:02.856Z,14.76
2023-04-13T12:37:02.921Z,14.83
2023-04-13T12:38:01.952Z,14.88
2023-04-13T12:39:01.972Z,15.00
2023-04-13T12:40:02.249Z,15.10
2023-04-13T12:41:02.366Z,15.19
2023-04-13T12:42:02.100Z,15.26
2023-04-13T12:43:02.540Z,15.33
2023-04-13T12:44:02.462Z,15.40
2023-04-13T12:45:02.801Z,15.43
2023-04-13T12:46:02.836Z,15.44
2023-04-13T12:47:02.638Z,15.56
2023-04-13T12:48:02.116Z,15.70
2023-04-13T12:49:03.088Z,15.78
2023-04-13T12:50:02.528Z,15.86
2023-04-13T12:51:02.653Z,15.93
2023-04-13T12:52:02.577Z,15.94
2023-04-13T12:53:02.852Z,16.03
2023-04-13T12:54:02.843Z,16.16
2023-04-13T12:55:02.695Z,16.26
2023-04-13T12:56:02.933Z,16.30
2023-04-13T12:57:02.703Z,16.25
2023-04-13T12:58:02.438Z,16.25
2023-04-13T12:59:02.873Z,16.34
2023-04-13T13:00:02.065Z,16.46
2023-04-13T13:01:02.593Z,16.51
2023-04-13T13:02:02.522Z,16.38
2023-04-13T13:03:13.099Z,16.41
2023-04-13T13:04:02.941Z,16.47
2023-04-13T13:05:03.116Z,16.58
2023-04-13T13:06:03.034Z,16.68
2023-04-13T13:07:03.086Z,16.70
2023-04-13T13:08:02.019Z,16.69
2023-04-13T13:09:02.567Z,16.78
2023-04-13T13:10:02.518Z,16.77
2023-04-13T13:11:01.964Z,16.71
2023-04-13T13:12:02.031Z,16.65
2023-04-13T13:13:02.436Z,16.61